Time;durP1;ratioP1;P1;durP2;ratioP2;P2;SDS_P1;SDS_P2;PMS_P1;PMS_P2;Temp;Humidity;BMP_temperature;BMP_pressure;BME280_temperature;BME280_humidity;BME280_pressure;Samples;Min_cycle;Max_cycle;Signal;HPM_P1;HPM_P2
2022/07/20 00:02:13;;;;;;;6.13;2.67;;;;;;;;;;8283080;28;20034;-62
2022/07/20 00:06:13;;;;;;;4.80;2.40;;;;;;;;;;8284811;28;20029;-62
2022/07/20 00:14:33;;;;;;;5.13;2.70;;;;;;;;;;8283884;28;20090;-62
2022/07/20 00:18:33;;;;;;;6.72;2.85;;;;;;;;;;8284027;28;20073;-62
2022/07/20 00:22:33;;;;;;;8.53;2.80;;;;;;;;;;8283146;28;20130;-62
2022/07/20 00:26:34;;;;;;;6.32;2.45;;;;;;;;;;8282572;28;20043;-61
2022/07/20 00:30:34;;;;;;;6.70;2.80;;;;;;;;;;8282743;28;20582;-62
2022/07/20 00:34:34;;;;;;;4.55;2.50;;;;;;;;;;8285723;28;20788;-62
2022/07/20 00:38:34;;;;;;;8.30;2.73;;;;;;;;;;8285854;28;20033;-61
2022/07/20 00:42:36;;;;;;;6.25;2.65;;;;;;;;;;8281963;28;20772;-62
2022/07/20 00:46:38;;;;;;;4.63;2.72;;;;;;;;;;8281012;28;20554;-62
2022/07/20 00:50:38;;;;;;;4.25;2.70;;;;;;;;;;8284928;28;20033;-62
2022/07/20 00:54:39;;;;;;;8.23;2.75;;;;;;;;;;8282762;28;20140;-62
2022/07/20 00:58:39;;;;;;;4.50;2.60;;;;;;;;;;8283103;28;20037;-61
2022/07/20 01:02:40;;;;;;;10.37;2.90;;;;;;;;;;8280310;28;20048;-62
2022/07/20 01:06:40;;;;;;;7.28;2.80;;;;;;;;;;8282329;28;20148;-62
2022/07/20 01:10:41;;;;;;;10.18;2.70;;;;;;;;;;8282857;28;20060;-62
2022/07/20 01:14:41;;;;;;;4.43;2.60;;;;;;;;;;8281917;28;20120;-61
2022/07/20 01:18:41;;;;;;;4.55;2.75;;;;;;;;;;8283351;28;20044;-62
2022/07/20 01:22:42;;;;;;;6.35;2.67;;;;;;;;;;8277499;28;20033;-61
2022/07/20 01:26:43;;;;;;;3.95;2.80;;;;;;;;;;8282512;28;20161;-61
2022/07/20 01:30:43;;;;;;;7.38;2.75;;;;;;;;;;8281169;28;20487;-61
2022/07/20 01:34:44;;;;;;;6.88;2.90;;;;;;;;;;8281946;28;20025;-62
2022/07/20 01:38:44;;;;;;;4.50;2.67;;;;;;;;;;8281081;28;20042;-62
2022/07/20 01:42:45;;;;;;;6.30;2.78;;;;;;;;;;8278816;28;20398;-62
2022/07/20 01:46:45;;;;;;;4.87;2.57;;;;;;;;;;8280869;28;20054;-62
2022/07/20 01:50:45;;;;;;;4.97;2.70;;;;;;;;;;8281902;28;20037;-64
2022/07/20 01:54:45;;;;;;;4.77;2.80;;;;;;;;;;8282876;28;20149;-62
2022/07/20 01:58:45;;;;;;;6.05;2.97;;;;;;;;;;8281770;28;20112;-62
2022/07/20 02:02:46;;;;;;;6.82;2.92;;;;;;;;;;8279180;28;20083;-62
2022/07/20 02:06:46;;;;;;;6.82;2.97;;;;;;;;;;8281506;28;20129;-62
2022/07/20 02:10:46;;;;;;;5.60;2.47;;;;;;;;;;8280514;28;20030;-62
2022/07/20 02:14:46;;;;;;;6.87;2.97;;;;;;;;;;8283931;28;20061;-61
2022/07/20 02:18:51;;;;;;;5.93;2.97;;;;;;;;;;8282643;28;20965;-61
2022/07/20 02:22:51;;;;;;;4.40;2.80;;;;;;;;;;8317893;28;20035;-62
2022/07/20 02:26:51;;;;;;;6.28;2.83;;;;;;;;;;8285320;28;20351;-62
2022/07/20 02:30:51;;;;;;;8.25;3.05;;;;;;;;;;8286896;28;20049;-62
2022/07/20 02:34:52;;;;;;;5.38;3.00;;;;;;;;;;8287237;28;20021;-62
2022/07/20 02:38:52;;;;;;;9.93;3.05;;;;;;;;;;8287810;28;20038;-62
2022/07/20 02:42:52;;;;;;;4.80;3.17;;;;;;;;;;8283412;28;20029;-61
2022/07/20 02:46:52;;;;;;;5.82;3.00;;;;;;;;;;8286683;28;20047;-61
2022/07/20 02:50:52;;;;;;;6.73;3.20;;;;;;;;;;8286139;28;20029;-62
2022/07/20 02:54:53;;;;;;;5.10;3.10;;;;;;;;;;8287434;28;20036;-62
2022/07/20 02:58:53;;;;;;;4.47;2.97;;;;;;;;;;8285423;28;20045;-61
2022/07/20 03:02:53;;;;;;;4.13;3.00;;;;;;;;;;8284673;28;20099;-61
2022/07/20 03:06:53;;;;;;;5.40;2.87;;;;;;;;;;8287110;28;20034;-61
2022/07/20 03:10:54;;;;;;;5.80;3.17;;;;;;;;;;8285706;28;20268;-61
2022/07/20 03:14:54;;;;;;;9.20;3.08;;;;;;;;;;8287776;28;20033;-61
2022/07/20 03:18:54;;;;;;;6.07;2.97;;;;;;;;;;8285425;28;20041;-60
2022/07/20 03:22:55;;;;;;;5.15;3.38;;;;;;;;;;8287273;28;20038;-62
2022/07/20 03:26:55;;;;;;;7.50;3.00;;;;;;;;;;8286545;28;20026;-60
2022/07/20 03:30:56;;;;;;;5.25;3.17;;;;;;;;;;8285723;28;20044;-59
2022/07/20 03:34:57;;;;;;;5.80;3.10;;;;;;;;;;8286235;28;20029;-59
2022/07/20 03:38:57;;;;;;;3.72;2.60;;;;;;;;;;8284919;28;20029;-61
2022/07/20 03:42:57;;;;;;;6.33;3.00;;;;;;;;;;8283893;28;20029;-60
2022/07/20 03:46:58;;;;;;;4.50;2.80;;;;;;;;;;8283272;28;20097;-61
2022/07/20 03:50:59;;;;;;;10.95;3.33;;;;;;;;;;8285847;28;20113;-60
2022/07/20 03:54:59;;;;;;;7.97;2.85;;;;;;;;;;8284939;28;20057;-60
2022/07/20 03:58:59;;;;;;;9.73;3.22;;;;;;;;;;8284312;28;20033;-65
2022/07/20 04:02:59;;;;;;;4.38;3.00;;;;;;;;;;8283315;28;20044;-61
2022/07/20 04:07:00;;;;;;;5.77;3.10;;;;;;;;;;8285718;28;20037;-61
2022/07/20 04:11:00;;;;;;;6.43;3.20;;;;;;;;;;8283856;28;20018;-60
2022/07/20 04:15:00;;;;;;;6.57;3.15;;;;;;;;;;8284996;28;20961;-61
2022/07/20 04:19:00;;;;;;;8.88;3.00;;;;;;;;;;8284636;28;20068;-61
2022/07/20 04:23:01;;;;;;;4.45;2.80;;;;;;;;;;8283889;28;20049;-61
2022/07/20 04:27:01;;;;;;;4.45;3.25;;;;;;;;;;8285014;28;20111;-60
2022/07/20 04:31:02;;;;;;;5.15;2.85;;;;;;;;;;8281261;28;20044;-60
2022/07/20 04:35:03;;;;;;;6.85;3.05;;;;;;;;;;8283088;28;20033;-61
2022/07/20 04:39:03;;;;;;;6.47;3.20;;;;;;;;;;8281971;28;20427;-61
2022/07/20 04:43:03;;;;;;;5.23;3.20;;;;;;;;;;8285077;28;20037;-61
2022/07/20 04:47:03;;;;;;;5.63;3.00;;;;;;;;;;8283257;28;21221;-60
2022/07/20 04:51:04;;;;;;;6.57;3.27;;;;;;;;;;8283593;28;20021;-61
2022/07/20 04:55:04;;;;;;;5.43;3.10;;;;;;;;;;8281500;28;20052;-60
2022/07/20 04:59:04;;;;;;;6.13;3.15;;;;;;;;;;8282541;28;20834;-61
2022/07/20 05:03:04;;;;;;;5.23;3.20;;;;;;;;;;8279749;28;20053;-60
2022/07/20 05:07:05;;;;;;;6.90;3.22;;;;;;;;;;8282831;28;20075;-60
2022/07/20 05:11:05;;;;;;;9.75;3.20;;;;;;;;;;8284223;28;20045;-60
2022/07/20 05:15:05;;;;;;;8.85;3.13;;;;;;;;;;8285051;28;20052;-60
2022/07/20 05:19:06;;;;;;;7.35;2.92;;;;;;;;;;8282408;28;20483;-60
2022/07/20 05:23:06;;;;;;;7.22;3.10;;;;;;;;;;8281070;28;20454;-60
2022/07/20 05:27:06;;;;;;;6.10;2.95;;;;;;;;;;8282358;28;20420;-60
2022/07/20 05:31:08;;;;;;;6.13;3.40;;;;;;;;;;8283787;28;20037;-61
2022/07/20 05:35:08;;;;;;;5.07;2.85;;;;;;;;;;8281524;28;20091;-60
2022/07/20 05:39:11;;;;;;;8.52;2.92;;;;;;;;;;8282551;28;20034;-60
2022/07/20 05:43:12;;;;;;;;;;;;;;;;;;8281749;28;20758;-60
2022/07/20 05:47:12;;;;;;;7.75;3.40;;;;;;;;;;8280952;28;19928;-60
2022/07/20 05:51:12;;;;;;;10.15;2.85;;;;;;;;;;8281188;28;20022;-61
2022/07/20 05:55:12;;;;;;;9.37;3.13;;;;;;;;;;8288515;28;20032;-60
2022/07/20 05:59:12;;;;;;;5.88;3.10;;;;;;;;;;8289653;28;20362;-61
2022/07/20 06:03:13;;;;;;;7.13;3.00;;;;;;;;;;8287680;28;20075;-60
2022/07/20 06:07:13;;;;;;;5.27;3.00;;;;;;;;;;8288063;28;20021;-61
2022/07/20 06:11:13;;;;;;;5.13;3.20;;;;;;;;;;8290708;28;20017;-61
2022/07/20 06:15:13;;;;;;;6.18;3.05;;;;;;;;;;8286770;28;20212;-61
2022/07/20 06:19:14;;;;;;;4.83;3.00;;;;;;;;;;8289326;28;20021;-61
2022/07/20 06:23:14;;;;;;;8.70;3.10;;;;;;;;;;8287243;28;20052;-60
2022/07/20 06:27:14;;;;;;;5.18;3.10;;;;;;;;;;8286842;28;20423;-61
2022/07/20 06:31:14;;;;;;;7.25;3.10;;;;;;;;;;8288138;28;20652;-60
2022/07/20 06:35:16;;;;;;;5.63;3.22;;;;;;;;;;8285307;28;20022;-60
2022/07/20 06:39:16;;;;;;;7.07;3.10;;;;;;;;;;8284538;28;20040;-60
2022/07/20 06:43:16;;;;;;;8.63;3.40;;;;;;;;;;8282065;28;20939;-60
2022/07/20 06:47:17;;;;;;;7.53;3.13;;;;;;;;;;8283657;28;20210;-60
2022/07/20 06:51:17;;;;;;;7.68;3.13;;;;;;;;;;8269031;28;20611;-60
2022/07/20 06:55:17;;;;;;;11.25;3.45;;;;;;;;;;8280240;28;20029;-61
2022/07/20 06:59:17;;;;;;;7.22;3.10;;;;;;;;;;8276475;28;20794;-60
2022/07/20 07:03:17;;;;;;;6.88;3.15;;;;;;;;;;8275970;28;20481;-60
2022/07/20 07:07:18;;;;;;;7.53;3.40;;;;;;;;;;8278213;28;20436;-60
2022/07/20 07:11:18;;;;;;;8.13;3.20;;;;;;;;;;8276086;28;20308;-60
2022/07/20 07:15:18;;;;;;;6.82;3.15;;;;;;;;;;8276328;28;20499;-60
2022/07/20 07:19:18;;;;;;;9.90;3.40;;;;;;;;;;8294868;28;20029;-59
2022/07/20 07:23:19;;;;;;;5.65;3.17;;;;;;;;;;8277105;28;20103;-60
2022/07/20 07:27:19;;;;;;;6.20;3.45;;;;;;;;;;8276125;28;20028;-60
2022/07/20 07:31:19;;;;;;;8.20;2.88;;;;;;;;;;8275410;28;20127;-60
2022/07/20 07:35:20;;;;;;;5.70;3.33;;;;;;;;;;8279190;28;20029;-60
2022/07/20 07:39:20;;;;;;;8.37;3.60;;;;;;;;;;8277664;28;20071;-61
2022/07/20 07:43:20;;;;;;;5.97;3.28;;;;;;;;;;8277147;28;20346;-61
2022/07/20 07:47:20;;;;;;;6.72;3.63;;;;;;;;;;8275144;28;20064;-61
2022/07/20 07:51:21;;;;;;;10.43;3.60;;;;;;;;;;8276968;28;20208;-60
2022/07/20 07:55:21;;;;;;;10.23;3.33;;;;;;;;;;8278724;28;20038;-60
2022/07/20 07:59:21;;;;;;;8.48;3.28;;;;;;;;;;8273925;28;20018;-60
2022/07/20 08:03:22;;;;;;;9.50;3.70;;;;;;;;;;8273701;28;20037;-61
2022/07/20 08:07:22;;;;;;;8.55;3.60;;;;;;;;;;8275119;28;20443;-60
2022/07/20 08:11:23;;;;;;;8.07;3.28;;;;;;;;;;8278944;28;20900;-60
2022/07/20 08:15:23;;;;;;;8.57;3.30;;;;;;;;;;8276603;28;20163;-61
2022/07/20 08:19:23;;;;;;;11.93;3.20;;;;;;;;;;8279711;28;20906;-60
2022/07/20 08:23:23;;;;;;;6.78;3.25;;;;;;;;;;8278091;28;20028;-61
2022/07/20 08:27:24;;;;;;;7.23;3.37;;;;;;;;;;8281776;28;20034;-60
2022/07/20 08:31:24;;;;;;;6.78;3.20;;;;;;;;;;8276537;28;20029;-60
2022/07/20 08:35:24;;;;;;;;;;;;;;;;;;8275890;28;20214;-60
2022/07/20 08:39:25;;;;;;;10.60;3.35;;;;;;;;;;8280609;28;20019;-60
2022/07/20 08:43:25;;;;;;;;;;;;;;;;;;8279017;28;20025;-61
2022/07/20 08:47:28;;;;;;;6.55;3.17;;;;;;;;;;8278462;28;19943;-60
2022/07/20 08:51:28;;;;;;;4.03;3.30;;;;;;;;;;8276888;28;20029;-61
2022/07/20 08:55:28;;;;;;;5.23;3.17;;;;;;;;;;8281867;28;20540;-60
2022/07/20 08:59:29;;;;;;;6.90;3.28;;;;;;;;;;8277042;28;20276;-60
2022/07/20 09:03:29;;;;;;;7.80;3.40;;;;;;;;;;8274069;28;20065;-60
2022/07/20 09:07:37;;;;;;;9.00;3.43;;;;;;;;;;8275458;28;20354;-60
2022/07/20 09:11:37;;;;;;;6.57;3.03;;;;;;;;;;8278145;28;20280;-60
2022/07/20 09:15:39;;;;;;;4.63;2.87;;;;;;;;;;8277566;28;20052;-59
2022/07/20 09:19:54;;;;;;;5.13;3.13;;;;;;;;;;8277425;28;20350;-60
2022/07/20 09:23:56;;;;;;;9.40;2.90;;;;;;;;;;8279363;28;20049;-59
2022/07/20 09:27:56;;;;;;;6.78;3.05;;;;;;;;;;8276636;28;20057;-59
2022/07/20 09:32:00;;;;;;;4.90;2.63;;;;;;;;;;8275691;28;20478;-59
2022/07/20 09:36:02;;;;;;;5.65;2.80;;;;;;;;;;8276707;28;20059;-60
2022/07/20 09:40:03;;;;;;;3.53;2.60;;;;;;;;;;8274461;28;20031;-59
2022/07/20 09:44:05;;;;;;;5.63;3.10;;;;;;;;;;8278130;28;20494;-59
2022/07/20 09:48:10;;;;;;;4.20;2.97;;;;;;;;;;8276667;28;20809;-59
2022/07/20 09:52:13;;;;;;;4.75;2.75;;;;;;;;;;8276863;28;20079;-59
2022/07/20 09:56:15;;;;;;;8.75;3.10;;;;;;;;;;8274963;28;20021;-60
2022/07/20 10:00:15;;;;;;;5.20;3.50;;;;;;;;;;8276542;28;20096;-61
2022/07/20 10:04:15;;;;;;;4.82;3.00;;;;;;;;;;8272363;28;20753;-60
2022/07/20 10:08:16;;;;;;;4.20;3.00;;;;;;;;;;8276738;28;20018;-60
2022/07/20 10:12:16;;;;;;;6.50;3.22;;;;;;;;;;8274972;28;20347;-60
2022/07/20 10:16:35;;;;;;;3.67;3.00;;;;;;;;;;8274565;28;20034;-60
2022/07/20 10:20:36;;;;;;;5.90;3.53;;;;;;;;;;8272265;28;20022;-62
2022/07/20 10:24:38;;;;;;;5.97;3.20;;;;;;;;;;8275832;28;20021;-60
2022/07/20 10:28:39;;;;;;;4.25;3.05;;;;;;;;;;8279163;28;20057;-60
2022/07/20 10:32:48;;;;;;;9.23;3.25;;;;;;;;;;8272856;28;20037;-60
2022/07/20 10:37:14;;;;;;;5.05;2.83;;;;;;;;;;8271380;28;20139;-60
2022/07/20 10:41:33;;;;;;;4.22;2.90;;;;;;;;;;8278687;28;20117;-60
2022/07/20 10:45:33;;;;;;;10.20;3.20;;;;;;;;;;8281428;28;20048;-61
2022/07/20 10:49:57;;;;;;;7.45;3.10;;;;;;;;;;8280179;28;20032;-60
2022/07/20 10:54:17;;;;;;;3.92;2.50;;;;;;;;;;8277548;28;20398;-60
2022/07/20 10:58:19;;;;;;;6.05;3.40;;;;;;;;;;8280781;28;20108;-60
2022/07/20 11:02:19;;;;;;;6.68;3.10;;;;;;;;;;8276880;28;20557;-60
2022/07/20 11:06:20;;;;;;;5.15;3.20;;;;;;;;;;8275573;28;20474;-60
2022/07/20 11:10:25;;;;;;;7.15;3.20;;;;;;;;;;8278695;28;20061;-60
2022/07/20 11:14:25;;;;;;;6.00;3.20;;;;;;;;;;8277990;28;20034;-60
2022/07/20 11:18:26;;;;;;;5.15;3.05;;;;;;;;;;8276753;28;20729;-60
2022/07/20 11:22:27;;;;;;;5.18;3.20;;;;;;;;;;8279320;28;20032;-60
2022/07/20 11:26:27;;;;;;;5.07;3.42;;;;;;;;;;8275322;28;20037;-60
2022/07/20 11:30:34;;;;;;;7.80;3.10;;;;;;;;;;8277495;28;20487;-60
2022/07/20 11:34:41;;;;;;;3.58;3.20;;;;;;;;;;8274969;28;20045;-60
2022/07/20 11:38:43;;;;;;;3.95;3.13;;;;;;;;;;8273861;28;20048;-60
2022/07/20 11:43:02;;;;;;;4.78;3.38;;;;;;;;;;8276332;28;20057;-61
2022/07/20 11:47:03;;;;;;;5.80;3.28;;;;;;;;;;8276488;28;20148;-60
2022/07/20 11:51:04;;;;;;;4.13;3.20;;;;;;;;;;8277418;28;20076;-62
2022/07/20 11:55:05;;;;;;;4.75;3.35;;;;;;;;;;8277547;28;20256;-60
2022/07/20 11:59:06;;;;;;;9.30;3.55;;;;;;;;;;8276401;28;20029;-61
2022/07/20 12:03:06;;;;;;;7.10;3.17;;;;;;;;;;8275056;28;20702;-60
2022/07/20 12:08:07;;;;;;;9.13;3.07;;;;;;;;;;8276150;28;20060;-60
2022/07/20 12:11:26;;;;;;;7.78;3.53;;;;;;;;;;8276873;28;20274;-60
2022/07/20 12:15:27;;;;;;;5.88;3.47;;;;;;;;;;8277204;28;20464;-60
2022/07/20 12:19:27;;;;;;;7.25;3.10;;;;;;;;;;8276681;28;20731;-60
2022/07/20 12:23:27;;;;;;;6.43;3.13;;;;;;;;;;8278909;28;21478;-60
2022/07/20 12:27:29;;;;;;;5.97;3.30;;;;;;;;;;8276783;28;20033;-60
2022/07/20 12:31:30;;;;;;;5.75;3.35;;;;;;;;;;8275199;28;20302;-60
2022/07/20 12:35:30;;;;;;;7.90;3.57;;;;;;;;;;8274035;28;20039;-60
2022/07/20 12:39:38;;;;;;;4.07;3.20;;;;;;;;;;8274102;28;20268;-61
2022/07/20 12:43:40;;;;;;;8.18;3.38;;;;;;;;;;8272776;28;20128;-61
2022/07/20 12:47:40;;;;;;;12.07;3.70;;;;;;;;;;8275337;28;20582;-61
2022/07/20 12:51:40;;;;;;;7.82;3.80;;;;;;;;;;8273151;28;20096;-61
2022/07/20 12:55:41;;;;;;;6.68;3.67;;;;;;;;;;8273559;28;20136;-61
2022/07/20 12:59:41;;;;;;;8.00;3.53;;;;;;;;;;8274875;28;20030;-61
2022/07/20 13:03:41;;;;;;;5.50;3.43;;;;;;;;;;8271505;28;20052;-61
2022/07/20 13:07:46;;;;;;;5.47;3.53;;;;;;;;;;8273559;28;20294;-61
2022/07/20 13:11:46;;;;;;;5.78;3.50;;;;;;;;;;8273804;28;20037;-61
2022/07/20 13:15:47;;;;;;;7.15;3.72;;;;;;;;;;8275256;28;20033;-60
2022/07/20 13:19:47;;;;;;;9.07;3.85;;;;;;;;;;8276953;28;20114;-60
2022/07/20 13:23:47;;;;;;;8.00;3.90;;;;;;;;;;8273727;28;20029;-60
2022/07/20 13:27:47;;;;;;;5.30;3.90;;;;;;;;;;8276002;28;20093;-59
2022/07/20 13:31:47;;;;;;;9.90;3.95;;;;;;;;;;8271563;28;20281;-60
2022/07/20 13:35:48;;;;;;;8.65;4.03;;;;;;;;;;8274305;28;20062;-60
2022/07/20 13:39:48;;;;;;;17.30;5.68;;;;;;;;;;8271735;28;20547;-59
2022/07/20 13:43:49;;;;;;;11.02;5.10;;;;;;;;;;8272984;28;20040;-59
2022/07/20 13:47:49;;;;;;;8.30;4.90;;;;;;;;;;8273405;28;20331;-61
2022/07/20 13:51:49;;;;;;;11.25;5.00;;;;;;;;;;8272979;28;20112;-61
2022/07/20 13:55:50;;;;;;;12.20;5.68;;;;;;;;;;8275237;28;20036;-60
2022/07/20 13:59:51;;;;;;;10.33;6.00;;;;;;;;;;8269003;28;20412;-61
2022/07/20 14:03:51;;;;;;;14.63;6.32;;;;;;;;;;8273353;28;20045;-61
2022/07/20 14:07:51;;;;;;;12.80;6.72;;;;;;;;;;8271152;28;20464;-61
2022/07/20 14:11:52;;;;;;;14.20;6.40;;;;;;;;;;8269326;28;20029;-60
2022/07/20 14:15:52;;;;;;;11.93;5.97;;;;;;;;;;8274576;28;20089;-60
2022/07/20 14:19:52;;;;;;;11.83;6.40;;;;;;;;;;8276049;28;20021;-61
2022/07/20 14:23:53;;;;;;;10.93;6.15;;;;;;;;;;8275084;28;20388;-61
2022/07/20 14:27:54;;;;;;;9.15;6.47;;;;;;;;;;8277530;28;20522;-61
2022/07/20 14:31:54;;;;;;;9.77;6.53;;;;;;;;;;8273414;28;20711;-60
2022/07/20 14:35:54;;;;;;;13.05;6.53;;;;;;;;;;8274853;28;20482;-61
2022/07/20 14:39:54;;;;;;;7.20;6.00;;;;;;;;;;8277181;28;20116;-61
2022/07/20 14:43:55;;;;;;;11.32;6.80;;;;;;;;;;8274867;28;20053;-61
2022/07/20 14:47:55;;;;;;;9.05;6.45;;;;;;;;;;8275689;28;20836;-61
2022/07/20 14:51:55;;;;;;;11.30;6.35;;;;;;;;;;8272853;28;20574;-61
2022/07/20 14:55:55;;;;;;;10.85;7.03;;;;;;;;;;8276526;28;20494;-61
2022/07/20 14:59:57;;;;;;;9.18;6.43;;;;;;;;;;8274298;28;20087;-63
2022/07/20 15:03:58;;;;;;;13.75;6.25;;;;;;;;;;8272905;28;20164;-61
2022/07/20 15:07:58;;;;;;;9.20;6.38;;;;;;;;;;8274717;28;20108;-61
2022/07/20 15:11:58;;;;;;;10.23;5.80;;;;;;;;;;8273883;28;20095;-61
2022/07/20 15:15:58;;;;;;;7.63;5.63;;;;;;;;;;8274787;28;20030;-61
2022/07/20 15:19:58;;;;;;;9.25;5.78;;;;;;;;;;8272247;28;20518;-61
2022/07/20 15:23:59;;;;;;;8.50;5.70;;;;;;;;;;8272815;28;20020;-60
2022/07/20 15:27:59;;;;;;;8.35;5.72;;;;;;;;;;8271473;28;20066;-60
2022/07/20 15:31:59;;;;;;;6.97;6.13;;;;;;;;;;8273527;28;20029;-60
2022/07/20 15:35:59;;;;;;;8.80;6.20;;;;;;;;;;8273746;28;20028;-61
2022/07/20 15:39:59;;;;;;;13.43;6.28;;;;;;;;;;8274456;28;20033;-61
2022/07/20 15:44:00;;;;;;;11.85;6.60;;;;;;;;;;8273208;28;20076;-60
2022/07/20 15:48:00;;;;;;;14.10;6.97;;;;;;;;;;8272050;28;20526;-61
2022/07/20 15:52:00;;;;;;;12.85;7.22;;;;;;;;;;8269139;28;20017;-60
2022/07/20 15:56:02;;;;;;;15.87;7.53;;;;;;;;;;8275771;28;20179;-61
2022/07/20 16:00:04;;;;;;;12.25;7.55;;;;;;;;;;8272156;28;20131;-61
2022/07/20 16:04:05;;;;;;;16.23;7.82;;;;;;;;;;8311265;28;20239;-61
2022/07/20 16:08:05;;;;;;;11.47;7.73;;;;;;;;;;8314907;28;20131;-62
2022/07/20 16:12:05;;;;;;;18.35;7.50;;;;;;;;;;8312608;28;20131;-61
2022/07/20 16:16:06;;;;;;;10.73;7.27;;;;;;;;;;8304979;28;20133;-61
2022/07/20 16:20:07;;;;;;;9.13;7.13;;;;;;;;;;8281057;28;20025;-61
2022/07/20 16:24:08;;;;;;;10.05;7.38;;;;;;;;;;8279884;28;20021;-61
2022/07/20 16:28:08;;;;;;;9.75;7.47;;;;;;;;;;8278256;28;20052;-61
2022/07/20 16:32:09;;;;;;;10.10;7.53;;;;;;;;;;8293092;28;20037;-61
2022/07/20 16:36:09;;;;;;;12.40;6.93;;;;;;;;;;8320871;28;20269;-61
2022/07/20 16:40:09;;;;;;;13.63;7.63;;;;;;;;;;8309036;28;20037;-61
2022/07/20 16:44:10;;;;;;;10.43;6.97;;;;;;;;;;8314824;28;20047;-61
2022/07/20 16:48:10;;;;;;;14.67;6.93;;;;;;;;;;8310395;28;20154;-61
2022/07/20 16:52:10;;;;;;;11.93;6.47;;;;;;;;;;8311971;28;20017;-60
2022/07/20 16:56:11;;;;;;;9.13;7.00;;;;;;;;;;8308310;28;20062;-61
2022/07/20 17:00:11;;;;;;;11.43;7.00;;;;;;;;;;8307409;28;20028;-60
2022/07/20 17:04:11;;;;;;;10.37;7.13;;;;;;;;;;8273069;28;20041;-61
2022/07/20 17:08:12;;;;;;;13.35;6.85;;;;;;;;;;8276112;28;20052;-61
2022/07/20 17:12:12;;;;;;;10.82;6.78;;;;;;;;;;8278155;28;20087;-60
2022/07/20 17:16:13;;;;;;;10.48;7.10;;;;;;;;;;8276942;28;20094;-60
2022/07/20 17:20:13;;;;;;;7.55;6.45;;;;;;;;;;8276281;28;20029;-60
2022/07/20 17:24:13;;;;;;;8.35;6.60;;;;;;;;;;8279277;28;20057;-61
2022/07/20 17:28:13;;;;;;;15.35;7.03;;;;;;;;;;8278427;28;20067;-60
2022/07/20 17:32:14;;;;;;;9.33;6.90;;;;;;;;;;8276913;28;20033;-60
2022/07/20 17:36:14;;;;;;;16.13;6.83;;;;;;;;;;8278727;28;20021;-60
2022/07/20 17:40:16;;;;;;;16.48;6.82;;;;;;;;;;8278680;28;20465;-60
2022/07/20 17:44:16;;;;;;;17.55;6.50;;;;;;;;;;8280581;28;20575;-60
2022/07/20 17:48:16;;;;;;;8.70;6.20;;;;;;;;;;8274682;28;20061;-60
2022/07/20 17:52:16;;;;;;;11.88;6.55;;;;;;;;;;8275062;28;20134;-61
2022/07/20 17:56:17;;;;;;;14.02;7.10;;;;;;;;;;8275789;28;20029;-61
2022/07/20 18:00:19;;;;;;;11.40;6.67;;;;;;;;;;8277322;28;20030;-61
2022/07/20 18:04:20;;;;;;;13.18;6.50;;;;;;;;;;8277112;28;20450;-60
2022/07/20 18:08:20;;;;;;;9.38;5.78;;;;;;;;;;8277226;28;20025;-62
2022/07/20 18:12:20;;;;;;;8.48;6.20;;;;;;;;;;8276062;28;20324;-61
2022/07/20 18:16:21;;;;;;;9.30;6.00;;;;;;;;;;8276424;28;20040;-62
2022/07/20 18:20:23;;;;;;;9.23;6.10;;;;;;;;;;8277174;28;20087;-61
2022/07/20 18:24:23;;;;;;;11.88;6.13;;;;;;;;;;8276933;28;20069;-61
2022/07/20 18:28:23;;;;;;;9.13;6.47;;;;;;;;;;8276387;28;20462;-60
2022/07/20 18:32:24;;;;;;;12.68;7.45;;;;;;;;;;8274186;28;20034;-61
2022/07/20 18:36:24;;;;;;;10.97;6.80;;;;;;;;;;8277422;28;20054;-61
2022/07/20 18:40:24;;;;;;;14.57;7.13;;;;;;;;;;8272507;28;20541;-60
2022/07/20 18:44:25;;;;;;;10.45;6.90;;;;;;;;;;8274589;28;20118;-59
2022/07/20 18:48:26;;;;;;;12.70;6.90;;;;;;;;;;8278993;28;20029;-60
2022/07/20 18:52:28;;;;;;;15.48;7.47;;;;;;;;;;8275357;28;20025;-60
2022/07/20 18:56:28;;;;;;;7.65;6.30;;;;;;;;;;8277209;28;20037;-60
2022/07/20 19:00:29;;;;;;;6.57;5.88;;;;;;;;;;8279239;28;20378;-59
2022/07/20 19:04:29;;;;;;;10.52;5.72;;;;;;;;;;8284049;28;20694;-61
2022/07/20 19:08:29;;;;;;;8.25;5.20;;;;;;;;;;8284403;28;20018;-59
2022/07/20 19:12:29;;;;;;;6.20;4.47;;;;;;;;;;8279295;28;20692;-59
2022/07/20 19:16:30;;;;;;;9.10;4.68;;;;;;;;;;8285109;28;20076;-59
2022/07/20 19:20:30;;;;;;;7.77;4.60;;;;;;;;;;8280823;28;20045;-60
2022/07/20 19:24:30;;;;;;;5.07;4.20;;;;;;;;;;8283926;28;20036;-60
2022/07/20 19:28:30;;;;;;;9.25;4.35;;;;;;;;;;8282427;28;20025;-60
2022/07/20 19:32:30;;;;;;;7.07;3.80;;;;;;;;;;8277844;28;20034;-59
2022/07/20 19:36:31;;;;;;;4.55;3.95;;;;;;;;;;8281080;28;20029;-59
2022/07/20 19:40:31;;;;;;;4.45;3.92;;;;;;;;;;8283009;28;20064;-60
2022/07/20 19:44:31;;;;;;;6.28;4.03;;;;;;;;;;8281685;28;20260;-60
2022/07/20 19:48:32;;;;;;;7.18;4.28;;;;;;;;;;8282797;28;20140;-61
2022/07/20 19:52:32;;;;;;;6.73;4.17;;;;;;;;;;8278832;28;20111;-61
2022/07/20 19:56:33;;;;;;;6.13;4.30;;;;;;;;;;8282397;28;20064;-60
2022/07/20 20:00:33;;;;;;;6.57;4.90;;;;;;;;;;8277935;28;20288;-60
2022/07/20 20:04:33;;;;;;;6.45;5.00;;;;;;;;;;8282842;28;20195;-60
2022/07/20 20:08:33;;;;;;;6.70;5.00;;;;;;;;;;8276165;28;20029;-61
2022/07/20 20:12:33;;;;;;;8.93;4.57;;;;;;;;;;8279482;28;20589;-60
2022/07/20 20:16:35;;;;;;;4.75;3.63;;;;;;;;;;8276765;28;20041;-60
2022/07/20 20:20:35;;;;;;;5.38;4.10;;;;;;;;;;8275151;28;20025;-60
2022/07/20 20:24:35;;;;;;;4.10;3.58;;;;;;;;;;8275922;28;20662;-60
2022/07/20 20:28:35;;;;;;;4.30;3.75;;;;;;;;;;8276964;28;20037;-60
2022/07/20 20:32:36;;;;;;;5.33;4.03;;;;;;;;;;8274148;28;20133;-60
2022/07/20 20:36:36;;;;;;;4.78;3.75;;;;;;;;;;8276867;28;20034;-60
2022/07/20 20:40:40;;;;;;;4.90;3.80;;;;;;;;;;8276468;28;20815;-61
2022/07/20 20:44:40;;;;;;;4.50;3.90;;;;;;;;;;8274731;28;20114;-60
2022/07/20 20:48:40;;;;;;;4.55;3.83;;;;;;;;;;8277111;28;20038;-60
2022/07/20 20:52:40;;;;;;;5.47;4.00;;;;;;;;;;8271977;28;20060;-60
2022/07/20 20:56:41;;;;;;;5.20;4.18;;;;;;;;;;8274464;28;20163;-60
2022/07/20 21:00:41;;;;;;;5.72;4.40;;;;;;;;;;8269916;28;20648;-60
2022/07/20 21:04:41;;;;;;;7.43;4.93;;;;;;;;;;8278262;28;20061;-59
2022/07/20 21:08:42;;;;;;;9.10;4.57;;;;;;;;;;8272233;28;20148;-59
2022/07/20 21:12:42;;;;;;;4.57;4.17;;;;;;;;;;8274548;28;20033;-59
2022/07/20 21:16:44;;;;;;;7.93;4.77;;;;;;;;;;8272206;28;20310;-60
2022/07/20 21:20:44;;;;;;;9.93;4.68;;;;;;;;;;8273598;28;20119;-60
2022/07/20 21:24:47;;;;;;;7.32;4.93;;;;;;;;;;8276543;28;20470;-59
2022/07/20 21:28:47;;;;;;;8.02;5.60;;;;;;;;;;8273776;28;20049;-59
2022/07/20 21:32:48;;;;;;;8.20;5.43;;;;;;;;;;8272742;28;20762;-59
2022/07/20 21:36:48;;;;;;;10.40;5.53;;;;;;;;;;8275029;28;20026;-60
2022/07/20 21:40:48;;;;;;;8.90;5.60;;;;;;;;;;8273552;28;20795;-59
2022/07/20 21:44:48;;;;;;;6.70;5.25;;;;;;;;;;8277276;28;20131;-59
2022/07/20 21:48:48;;;;;;;10.10;5.55;;;;;;;;;;8271879;28;20037;-60
2022/07/20 21:52:48;;;;;;;5.95;5.20;;;;;;;;;;8275094;28;20141;-59
2022/07/20 21:56:49;;;;;;;11.90;6.18;;;;;;;;;;8274987;28;20787;-59
2022/07/20 22:00:49;;;;;;;8.45;5.40;;;;;;;;;;8274214;28;20053;-59
2022/07/20 22:04:49;;;;;;;7.03;5.65;;;;;;;;;;8272328;28;20018;-59
2022/07/20 22:08:51;;;;;;;8.47;5.90;;;;;;;;;;8274161;28;20026;-60
2022/07/20 22:12:51;;;;;;;8.50;6.07;;;;;;;;;;8271449;28;20856;-58
2022/07/20 22:16:51;;;;;;;8.98;5.80;;;;;;;;;;8274202;28;20072;-59
2022/07/20 22:20:52;;;;;;;11.02;6.75;;;;;;;;;;8273364;28;20153;-59
2022/07/20 22:24:52;;;;;;;12.57;8.68;;;;;;;;;;8271211;28;20039;-59
2022/07/20 22:28:54;;;;;;;9.68;7.57;;;;;;;;;;8272357;28;20104;-59
2022/07/20 22:32:54;;;;;;;10.18;8.27;;;;;;;;;;8270382;28;20097;-59
2022/07/20 22:36:55;;;;;;;9.90;8.40;;;;;;;;;;8276469;28;20581;-59
2022/07/20 22:40:55;;;;;;;13.65;9.77;;;;;;;;;;8273835;28;20497;-59
2022/07/20 22:44:56;;;;;;;10.93;8.80;;;;;;;;;;8279661;28;20072;-59
2022/07/20 22:48:56;;;;;;;12.05;8.75;;;;;;;;;;8279646;28;20092;-59
2022/07/20 22:52:56;;;;;;;10.93;9.45;;;;;;;;;;8283019;28;20064;-59
2022/07/20 23:01:15;;;;;;;12.13;9.55;;;;;;;;;;8284368;28;20106;-59
2022/07/20 23:05:16;;;;;;;11.68;9.82;;;;;;;;;;8280510;28;20056;-59
2022/07/20 23:09:16;;;;;;;13.82;9.60;;;;;;;;;;8285331;28;20438;-60
2022/07/20 23:13:16;;;;;;;14.02;9.73;;;;;;;;;;8281374;28;20105;-59
2022/07/20 23:17:17;;;;;;;13.32;10.10;;;;;;;;;;8281784;28;20075;-59
2022/07/20 23:21:17;;;;;;;11.63;9.83;;;;;;;;;;8282434;28;20112;-59
2022/07/20 23:25:19;;;;;;;11.57;9.35;;;;;;;;;;8286870;28;20060;-59
2022/07/20 23:29:19;;;;;;;10.45;8.73;;;;;;;;;;8284711;28;20029;-59
2022/07/20 23:33:19;;;;;;;10.35;8.05;;;;;;;;;;8283235;28;20041;-59
2022/07/20 23:37:19;;;;;;;11.68;8.00;;;;;;;;;;8285715;28;20070;-59
2022/07/20 23:41:20;;;;;;;8.93;7.50;;;;;;;;;;8285668;28;20029;-61
2022/07/20 23:45:20;;;;;;;11.53;7.33;;;;;;;;;;8284019;28;20021;-60
2022/07/20 23:49:21;;;;;;;12.63;8.00;;;;;;;;;;8286658;28;20026;-59
2022/07/20 23:53:21;;;;;;;12.82;9.32;;;;;;;;;;8281675;28;20334;-60
2022/07/20 23:57:21;;;;;;;11.23;10.00;;;;;;;;;;8284129;28;20083;-60
